sensor_id;sensor_type;location;lat;lon;timestamp;P1;durP1;ratioP1;P2;durP2;ratioP2
76727;SDS011;65652;53.132;18.026;2023-02-18T00:00:26;8.50;;;1.80;;
76727;SDS011;65652;53.132;18.026;2023-02-18T00:03:14;8.10;;;1.20;;
76727;SDS011;65652;53.132;18.026;2023-02-18T00:05:40;9.20;;;1.60;;
76727;SDS011;65652;53.132;18.026;2023-02-18T00:08:07;8.10;;;1.10;;
76727;SDS011;65652;53.132;18.026;2023-02-18T00:10:34;10.00;;;1.40;;
76727;SDS011;65652;53.132;18.026;2023-02-18T00:13:01;7.50;;;1.80;;
76727;SDS011;65652;53.132;18.026;2023-02-18T00:15:28;6.40;;;1.40;;
76727;SDS011;65652;53.132;18.026;2023-02-18T00:17:55;9.30;;;1.60;;
76727;SDS011;65652;53.132;18.026;2023-02-18T00:20:22;6.40;;;1.20;;
76727;SDS011;65652;53.132;18.026;2023-02-18T00:22:48;8.30;;;1.00;;
76727;SDS011;65652;53.132;18.026;2023-02-18T00:25:15;8.20;;;1.00;;
76727;SDS011;65652;53.132;18.026;2023-02-18T00:27:42;4.60;;;0.90;;
76727;SDS011;65652;53.132;18.026;2023-02-18T00:30:09;9.60;;;1.20;;
76727;SDS011;65652;53.132;18.026;2023-02-18T00:32:36;5.60;;;1.10;;
76727;SDS011;65652;53.132;18.026;2023-02-18T00:35:04;11.40;;;1.60;;
76727;SDS011;65652;53.132;18.026;2023-02-18T00:37:31;8.50;;;1.40;;
76727;SDS011;65652;53.132;18.026;2023-02-18T00:39:57;9.10;;;1.60;;
76727;SDS011;65652;53.132;18.026;2023-02-18T00:42:24;8.30;;;1.80;;
76727;SDS011;65652;53.132;18.026;2023-02-18T00:44:53;5.80;;;0.90;;
76727;SDS011;65652;53.132;18.026;2023-02-18T00:47:21;6.60;;;1.20;;
76727;SDS011;65652;53.132;18.026;2023-02-18T00:49:48;6.50;;;1.30;;
76727;SDS011;65652;53.132;18.026;2023-02-18T00:52:14;8.30;;;2.10;;
76727;SDS011;65652;53.132;18.026;2023-02-18T00:54:41;4.50;;;0.90;;
76727;SDS011;65652;53.132;18.026;2023-02-18T00:57:08;10.30;;;1.80;;
76727;SDS011;65652;53.132;18.026;2023-02-18T00:59:35;7.30;;;1.00;;
76727;SDS011;65652;53.132;18.026;2023-02-18T01:02:02;9.70;;;1.60;;
76727;SDS011;65652;53.132;18.026;2023-02-18T01:04:29;7.40;;;1.20;;
76727;SDS011;65652;53.132;18.026;2023-02-18T01:06:56;13.00;;;1.90;;
76727;SDS011;65652;53.132;18.026;2023-02-18T01:09:23;10.00;;;1.40;;
76727;SDS011;65652;53.132;18.026;2023-02-18T01:11:51;6.10;;;1.20;;
76727;SDS011;65652;53.132;18.026;2023-02-18T01:14:18;6.60;;;1.20;;
76727;SDS011;65652;53.132;18.026;2023-02-18T01:16:44;9.00;;;1.50;;
76727;SDS011;65652;53.132;18.026;2023-02-18T01:19:11;10.10;;;1.30;;
76727;SDS011;65652;53.132;18.026;2023-02-18T01:21:38;8.30;;;1.50;;
76727;SDS011;65652;53.132;18.026;2023-02-18T01:24:05;6.30;;;1.10;;
76727;SDS011;65652;53.132;18.026;2023-02-18T01:26:32;6.70;;;1.20;;
76727;SDS011;65652;53.132;18.026;2023-02-18T01:28:59;8.70;;;1.10;;
76727;SDS011;65652;53.132;18.026;2023-02-18T01:31:26;8.40;;;2.00;;
76727;SDS011;65652;53.132;18.026;2023-02-18T01:33:53;6.80;;;1.20;;
76727;SDS011;65652;53.132;18.026;2023-02-18T01:36:20;8.00;;;1.50;;
76727;SDS011;65652;53.132;18.026;2023-02-18T01:38:47;9.30;;;1.20;;
76727;SDS011;65652;53.132;18.026;2023-02-18T01:41:14;5.10;;;1.30;;
76727;SDS011;65652;53.132;18.026;2023-02-18T01:43:41;8.90;;;1.50;;
76727;SDS011;65652;53.132;18.026;2023-02-18T01:48:46;7.30;;;1.30;;
76727;SDS011;65652;53.132;18.026;2023-02-18T01:51:18;8.30;;;1.10;;
76727;SDS011;65652;53.132;18.026;2023-02-18T01:53:59;4.30;;;0.80;;
76727;SDS011;65652;53.132;18.026;2023-02-18T01:56:34;5.80;;;1.00;;
76727;SDS011;65652;53.132;18.026;2023-02-18T01:59:08;8.50;;;1.30;;
76727;SDS011;65652;53.132;18.026;2023-02-18T02:01:38;6.50;;;1.00;;
76727;SDS011;65652;53.132;18.026;2023-02-18T02:04:09;6.70;;;1.10;;
76727;SDS011;65652;53.132;18.026;2023-02-18T02:06:36;10.70;;;1.20;;
76727;SDS011;65652;53.132;18.026;2023-02-18T02:09:05;6.80;;;1.10;;
76727;SDS011;65652;53.132;18.026;2023-02-18T02:17:42;9.30;;;1.10;;
76727;SDS011;65652;53.132;18.026;2023-02-18T02:39:24;4.80;;;0.70;;
76727;SDS011;65652;53.132;18.026;2023-02-18T02:42:03;5.80;;;1.10;;
76727;SDS011;65652;53.132;18.026;2023-02-18T02:47:25;10.30;;;1.40;;
76727;SDS011;65652;53.132;18.026;2023-02-18T02:52:32;9.30;;;1.00;;
76727;SDS011;65652;53.132;18.026;2023-02-18T02:55:09;4.50;;;1.00;;
76727;SDS011;65652;53.132;18.026;2023-02-18T02:57:49;9.60;;;0.90;;
76727;SDS011;65652;53.132;18.026;2023-02-18T03:00:25;8.60;;;1.60;;
76727;SDS011;65652;53.132;18.026;2023-02-18T03:11:43;8.10;;;0.80;;
76727;SDS011;65652;53.132;18.026;2023-02-18T03:14:22;7.40;;;1.60;;
76727;SDS011;65652;53.132;18.026;2023-02-18T03:16:59;13.50;;;1.00;;
76727;SDS011;65652;53.132;18.026;2023-02-18T03:19:51;9.00;;;1.40;;
76727;SDS011;65652;53.132;18.026;2023-02-18T03:22:30;8.30;;;1.00;;
76727;SDS011;65652;53.132;18.026;2023-02-18T03:25:02;7.80;;;1.20;;
76727;SDS011;65652;53.132;18.026;2023-02-18T03:27:35;7.50;;;1.10;;
76727;SDS011;65652;53.132;18.026;2023-02-18T03:30:11;7.50;;;0.90;;
76727;SDS011;65652;53.132;18.026;2023-02-18T03:32:47;6.90;;;1.20;;
76727;SDS011;65652;53.132;18.026;2023-02-18T03:35:18;7.40;;;1.20;;
76727;SDS011;65652;53.132;18.026;2023-02-18T03:37:59;4.70;;;0.80;;
76727;SDS011;65652;53.132;18.026;2023-02-18T03:40:32;4.70;;;0.90;;
76727;SDS011;65652;53.132;18.026;2023-02-18T03:43:00;8.70;;;1.80;;
76727;SDS011;65652;53.132;18.026;2023-02-18T03:45:27;8.80;;;1.50;;
76727;SDS011;65652;53.132;18.026;2023-02-18T03:47:54;10.50;;;1.80;;
76727;SDS011;65652;53.132;18.026;2023-02-18T03:50:23;7.50;;;1.10;;
76727;SDS011;65652;53.132;18.026;2023-02-18T03:52:50;6.00;;;0.80;;
76727;SDS011;65652;53.132;18.026;2023-02-18T03:55:17;5.90;;;1.00;;
76727;SDS011;65652;53.132;18.026;2023-02-18T03:57:44;3.90;;;0.60;;
76727;SDS011;65652;53.132;18.026;2023-02-18T04:00:11;6.60;;;1.00;;
76727;SDS011;65652;53.132;18.026;2023-02-18T04:02:41;7.90;;;1.30;;
76727;SDS011;65652;53.132;18.026;2023-02-18T04:05:08;7.60;;;1.50;;
76727;SDS011;65652;53.132;18.026;2023-02-18T04:07:36;8.30;;;1.00;;
76727;SDS011;65652;53.132;18.026;2023-02-18T04:10:03;5.00;;;1.00;;
76727;SDS011;65652;53.132;18.026;2023-02-18T04:12:33;6.60;;;1.00;;
76727;SDS011;65652;53.132;18.026;2023-02-18T04:15:00;6.50;;;1.40;;
76727;SDS011;65652;53.132;18.026;2023-02-18T04:17:27;3.20;;;0.70;;
76727;SDS011;65652;53.132;18.026;2023-02-18T04:19:54;6.60;;;1.40;;
76727;SDS011;65652;53.132;18.026;2023-02-18T04:22:21;5.10;;;0.90;;
76727;SDS011;65652;53.132;18.026;2023-02-18T04:24:48;7.50;;;1.30;;
76727;SDS011;65652;53.132;18.026;2023-02-18T04:27:15;8.60;;;1.20;;
76727;SDS011;65652;53.132;18.026;2023-02-18T04:29:42;4.70;;;0.80;;
76727;SDS011;65652;53.132;18.026;2023-02-18T04:32:09;6.80;;;0.80;;
76727;SDS011;65652;53.132;18.026;2023-02-18T04:34:36;6.40;;;1.00;;
76727;SDS011;65652;53.132;18.026;2023-02-18T04:37:03;9.90;;;1.20;;
76727;SDS011;65652;53.132;18.026;2023-02-18T04:39:30;7.20;;;0.90;;
76727;SDS011;65652;53.132;18.026;2023-02-18T04:41:56;4.80;;;0.80;;
76727;SDS011;65652;53.132;18.026;2023-02-18T04:44:23;8.80;;;1.20;;
76727;SDS011;65652;53.132;18.026;2023-02-18T04:46:50;8.20;;;1.20;;
76727;SDS011;65652;53.132;18.026;2023-02-18T04:49:17;5.10;;;0.90;;
76727;SDS011;65652;53.132;18.026;2023-02-18T04:51:44;6.30;;;0.90;;
76727;SDS011;65652;53.132;18.026;2023-02-18T04:54:11;6.50;;;1.10;;
76727;SDS011;65652;53.132;18.026;2023-02-18T04:56:38;9.80;;;1.20;;
76727;SDS011;65652;53.132;18.026;2023-02-18T04:59:04;6.40;;;1.20;;
76727;SDS011;65652;53.132;18.026;2023-02-18T05:01:31;9.50;;;1.00;;
76727;SDS011;65652;53.132;18.026;2023-02-18T05:03:58;9.30;;;1.10;;
76727;SDS011;65652;53.132;18.026;2023-02-18T05:06:25;6.70;;;0.80;;
76727;SDS011;65652;53.132;18.026;2023-02-18T05:08:52;6.90;;;1.60;;
76727;SDS011;65652;53.132;18.026;2023-02-18T05:11:19;7.70;;;1.40;;
76727;SDS011;65652;53.132;18.026;2023-02-18T05:13:46;8.20;;;1.00;;
76727;SDS011;65652;53.132;18.026;2023-02-18T05:16:13;6.80;;;1.30;;
76727;SDS011;65652;53.132;18.026;2023-02-18T05:18:40;7.70;;;1.60;;
76727;SDS011;65652;53.132;18.026;2023-02-18T05:21:07;9.80;;;1.30;;
76727;SDS011;65652;53.132;18.026;2023-02-18T05:23:34;7.70;;;1.10;;
76727;SDS011;65652;53.132;18.026;2023-02-18T05:26:00;8.30;;;1.30;;
76727;SDS011;65652;53.132;18.026;2023-02-18T05:28:27;9.70;;;1.30;;
76727;SDS011;65652;53.132;18.026;2023-02-18T05:30:54;8.90;;;1.30;;
76727;SDS011;65652;53.132;18.026;2023-02-18T05:33:21;8.50;;;1.40;;
76727;SDS011;65652;53.132;18.026;2023-02-18T05:35:48;11.20;;;1.20;;
76727;SDS011;65652;53.132;18.026;2023-02-18T05:38:15;6.60;;;1.50;;
76727;SDS011;65652;53.132;18.026;2023-02-18T05:40:42;9.80;;;1.20;;
76727;SDS011;65652;53.132;18.026;2023-02-18T05:43:09;7.10;;;1.60;;
76727;SDS011;65652;53.132;18.026;2023-02-18T05:45:36;8.80;;;1.40;;
76727;SDS011;65652;53.132;18.026;2023-02-18T05:48:04;7.80;;;1.60;;
76727;SDS011;65652;53.132;18.026;2023-02-18T05:50:31;6.60;;;1.20;;
76727;SDS011;65652;53.132;18.026;2023-02-18T05:52:58;9.40;;;1.40;;
76727;SDS011;65652;53.132;18.026;2023-02-18T05:55:25;7.90;;;1.10;;
76727;SDS011;65652;53.132;18.026;2023-02-18T05:57:52;7.60;;;1.00;;
76727;SDS011;65652;53.132;18.026;2023-02-18T06:00:19;7.60;;;1.30;;
76727;SDS011;65652;53.132;18.026;2023-02-18T06:02:46;8.50;;;1.30;;
76727;SDS011;65652;53.132;18.026;2023-02-18T06:05:13;5.40;;;0.90;;
76727;SDS011;65652;53.132;18.026;2023-02-18T06:07:40;7.00;;;1.10;;
76727;SDS011;65652;53.132;18.026;2023-02-18T06:10:07;6.40;;;0.90;;
76727;SDS011;65652;53.132;18.026;2023-02-18T06:12:34;8.50;;;1.10;;
76727;SDS011;65652;53.132;18.026;2023-02-18T06:15:01;9.10;;;1.20;;
76727;SDS011;65652;53.132;18.026;2023-02-18T06:17:29;9.00;;;1.40;;
76727;SDS011;65652;53.132;18.026;2023-02-18T06:19:55;10.00;;;1.20;;
76727;SDS011;65652;53.132;18.026;2023-02-18T06:22:22;12.80;;;1.50;;
76727;SDS011;65652;53.132;18.026;2023-02-18T06:24:49;10.40;;;1.70;;
76727;SDS011;65652;53.132;18.026;2023-02-18T06:27:16;7.30;;;1.30;;
76727;SDS011;65652;53.132;18.026;2023-02-18T06:29:43;8.70;;;1.00;;
76727;SDS011;65652;53.132;18.026;2023-02-18T06:32:10;11.50;;;1.50;;
76727;SDS011;65652;53.132;18.026;2023-02-18T06:34:37;11.70;;;1.40;;
76727;SDS011;65652;53.132;18.026;2023-02-18T06:37:04;7.60;;;1.10;;
76727;SDS011;65652;53.132;18.026;2023-02-18T06:39:31;6.40;;;1.30;;
76727;SDS011;65652;53.132;18.026;2023-02-18T06:41:58;9.80;;;1.60;;
76727;SDS011;65652;53.132;18.026;2023-02-18T06:44:25;6.70;;;1.40;;
76727;SDS011;65652;53.132;18.026;2023-02-18T06:46:52;6.40;;;1.40;;
76727;SDS011;65652;53.132;18.026;2023-02-18T06:49:19;11.50;;;1.60;;
76727;SDS011;65652;53.132;18.026;2023-02-18T06:51:46;6.40;;;1.30;;
76727;SDS011;65652;53.132;18.026;2023-02-18T06:54:13;12.00;;;3.00;;
76727;SDS011;65652;53.132;18.026;2023-02-18T06:56:40;14.40;;;2.20;;
76727;SDS011;65652;53.132;18.026;2023-02-18T06:59:06;9.50;;;2.70;;
76727;SDS011;65652;53.132;18.026;2023-02-18T07:01:33;7.60;;;1.40;;
76727;SDS011;65652;53.132;18.026;2023-02-18T07:04:00;9.10;;;1.90;;
76727;SDS011;65652;53.132;18.026;2023-02-18T07:06:27;9.40;;;1.80;;
76727;SDS011;65652;53.132;18.026;2023-02-18T07:08:54;10.60;;;1.60;;
76727;SDS011;65652;53.132;18.026;2023-02-18T07:11:21;7.80;;;1.20;;
76727;SDS011;65652;53.132;18.026;2023-02-18T07:13:48;8.40;;;1.80;;
76727;SDS011;65652;53.132;18.026;2023-02-18T07:16:15;6.90;;;1.30;;
76727;SDS011;65652;53.132;18.026;2023-02-18T07:18:42;12.60;;;1.70;;
76727;SDS011;65652;53.132;18.026;2023-02-18T07:21:08;8.10;;;1.70;;
76727;SDS011;65652;53.132;18.026;2023-02-18T07:23:35;13.10;;;2.30;;
76727;SDS011;65652;53.132;18.026;2023-02-18T07:26:09;10.00;;;1.60;;
76727;SDS011;65652;53.132;18.026;2023-02-18T07:28:38;11.50;;;2.10;;
76727;SDS011;65652;53.132;18.026;2023-02-18T07:31:05;10.10;;;1.80;;
76727;SDS011;65652;53.132;18.026;2023-02-18T07:33:33;10.10;;;2.00;;
76727;SDS011;65652;53.132;18.026;2023-02-18T07:36:00;11.80;;;1.80;;
76727;SDS011;65652;53.132;18.026;2023-02-18T07:38:28;8.90;;;1.40;;
76727;SDS011;65652;53.132;18.026;2023-02-18T07:40:55;7.10;;;1.30;;
76727;SDS011;65652;53.132;18.026;2023-02-18T07:43:23;9.30;;;1.90;;
76727;SDS011;65652;53.132;18.026;2023-02-18T07:45:50;7.90;;;1.40;;
76727;SDS011;65652;53.132;18.026;2023-02-18T07:48:16;8.10;;;1.40;;
76727;SDS011;65652;53.132;18.026;2023-02-18T07:50:44;8.80;;;1.50;;
76727;SDS011;65652;53.132;18.026;2023-02-18T07:53:13;10.10;;;1.30;;
76727;SDS011;65652;53.132;18.026;2023-02-18T07:55:41;12.30;;;2.00;;
76727;SDS011;65652;53.132;18.026;2023-02-18T07:58:21;12.80;;;1.90;;
76727;SDS011;65652;53.132;18.026;2023-02-18T08:00:50;8.80;;;1.70;;
76727;SDS011;65652;53.132;18.026;2023-02-18T08:03:17;10.20;;;1.90;;
76727;SDS011;65652;53.132;18.026;2023-02-18T08:05:49;9.70;;;1.80;;
76727;SDS011;65652;53.132;18.026;2023-02-18T08:08:19;8.00;;;1.40;;
76727;SDS011;65652;53.132;18.026;2023-02-18T08:10:48;12.50;;;1.80;;
76727;SDS011;65652;53.132;18.026;2023-02-18T08:13:16;8.50;;;2.00;;
76727;SDS011;65652;53.132;18.026;2023-02-18T08:15:43;9.20;;;2.40;;
76727;SDS011;65652;53.132;18.026;2023-02-18T08:18:17;10.40;;;1.80;;
76727;SDS011;65652;53.132;18.026;2023-02-18T08:20:46;12.20;;;2.90;;
76727;SDS011;65652;53.132;18.026;2023-02-18T08:23:14;8.60;;;2.10;;
76727;SDS011;65652;53.132;18.026;2023-02-18T08:25:45;9.60;;;2.20;;
76727;SDS011;65652;53.132;18.026;2023-02-18T08:28:14;10.00;;;2.50;;
76727;SDS011;65652;53.132;18.026;2023-02-18T08:30:45;12.20;;;2.90;;
76727;SDS011;65652;53.132;18.026;2023-02-18T08:33:13;10.60;;;2.10;;
76727;SDS011;65652;53.132;18.026;2023-02-18T08:35:40;9.00;;;2.10;;
76727;SDS011;65652;53.132;18.026;2023-02-18T08:38:07;9.00;;;1.90;;
76727;SDS011;65652;53.132;18.026;2023-02-18T08:40:34;9.20;;;2.60;;
76727;SDS011;65652;53.132;18.026;2023-02-18T08:43:01;12.70;;;2.30;;
76727;SDS011;65652;53.132;18.026;2023-02-18T08:45:28;7.80;;;1.80;;
76727;SDS011;65652;53.132;18.026;2023-02-18T08:47:55;8.40;;;1.90;;
76727;SDS011;65652;53.132;18.026;2023-02-18T08:50:22;9.80;;;2.50;;
76727;SDS011;65652;53.132;18.026;2023-02-18T08:52:52;10.00;;;2.20;;
76727;SDS011;65652;53.132;18.026;2023-02-18T08:55:19;11.60;;;2.20;;
76727;SDS011;65652;53.132;18.026;2023-02-18T08:57:47;9.70;;;2.10;;
76727;SDS011;65652;53.132;18.026;2023-02-18T09:00:15;8.30;;;1.40;;
76727;SDS011;65652;53.132;18.026;2023-02-18T09:02:43;15.20;;;2.30;;
76727;SDS011;65652;53.132;18.026;2023-02-18T09:05:11;9.50;;;2.40;;
76727;SDS011;65652;53.132;18.026;2023-02-18T09:07:38;9.40;;;2.30;;
76727;SDS011;65652;53.132;18.026;2023-02-18T09:10:06;13.10;;;2.50;;
76727;SDS011;65652;53.132;18.026;2023-02-18T09:12:34;9.40;;;2.30;;
76727;SDS011;65652;53.132;18.026;2023-02-18T09:15:01;12.40;;;2.90;;
76727;SDS011;65652;53.132;18.026;2023-02-18T09:17:28;14.20;;;3.20;;
76727;SDS011;65652;53.132;18.026;2023-02-18T09:19:55;9.80;;;2.00;;
76727;SDS011;65652;53.132;18.026;2023-02-18T09:22:22;11.80;;;2.20;;
76727;SDS011;65652;53.132;18.026;2023-02-18T09:24:49;11.00;;;2.30;;
76727;SDS011;65652;53.132;18.026;2023-02-18T09:27:16;11.10;;;3.20;;
76727;SDS011;65652;53.132;18.026;2023-02-18T09:29:42;10.50;;;2.00;;
76727;SDS011;65652;53.132;18.026;2023-02-18T09:32:10;7.90;;;2.20;;
76727;SDS011;65652;53.132;18.026;2023-02-18T09:34:37;13.10;;;2.20;;
76727;SDS011;65652;53.132;18.026;2023-02-18T09:37:04;12.90;;;2.60;;
76727;SDS011;65652;53.132;18.026;2023-02-18T09:39:31;8.10;;;2.20;;
76727;SDS011;65652;53.132;18.026;2023-02-18T09:42:00;15.70;;;3.30;;
76727;SDS011;65652;53.132;18.026;2023-02-18T09:44:31;10.00;;;2.20;;
76727;SDS011;65652;53.132;18.026;2023-02-18T09:47:03;12.10;;;2.80;;
76727;SDS011;65652;53.132;18.026;2023-02-18T09:49:55;8.80;;;2.20;;
76727;SDS011;65652;53.132;18.026;2023-02-18T09:54:57;9.10;;;2.20;;
76727;SDS011;65652;53.132;18.026;2023-02-18T09:57:26;8.30;;;2.00;;
76727;SDS011;65652;53.132;18.026;2023-02-18T10:00:05;11.70;;;2.10;;
76727;SDS011;65652;53.132;18.026;2023-02-18T10:02:39;13.30;;;2.90;;
76727;SDS011;65652;53.132;18.026;2023-02-18T10:05:12;14.10;;;3.40;;
76727;SDS011;65652;53.132;18.026;2023-02-18T10:07:41;10.30;;;2.60;;
76727;SDS011;65652;53.132;18.026;2023-02-18T10:10:20;13.10;;;2.70;;
76727;SDS011;65652;53.132;18.026;2023-02-18T10:12:54;10.20;;;2.90;;
76727;SDS011;65652;53.132;18.026;2023-02-18T10:15:22;11.60;;;2.60;;
76727;SDS011;65652;53.132;18.026;2023-02-18T10:17:55;10.80;;;2.60;;
76727;SDS011;65652;53.132;18.026;2023-02-18T10:20:26;11.60;;;2.90;;
76727;SDS011;65652;53.132;18.026;2023-02-18T10:22:56;16.70;;;3.90;;
76727;SDS011;65652;53.132;18.026;2023-02-18T10:25:26;7.00;;;2.20;;
76727;SDS011;65652;53.132;18.026;2023-02-18T10:27:55;7.90;;;2.00;;
76727;SDS011;65652;53.132;18.026;2023-02-18T10:30:32;10.70;;;2.40;;
76727;SDS011;65652;53.132;18.026;2023-02-18T10:41:32;13.00;;;2.70;;
76727;SDS011;65652;53.132;18.026;2023-02-18T10:44:20;9.60;;;2.50;;
76727;SDS011;65652;53.132;18.026;2023-02-18T10:47:14;13.10;;;2.50;;
76727;SDS011;65652;53.132;18.026;2023-02-18T10:49:54;11.80;;;3.90;;
76727;SDS011;65652;53.132;18.026;2023-02-18T10:52:24;13.50;;;4.00;;
76727;SDS011;65652;53.132;18.026;2023-02-18T10:57:27;13.70;;;3.30;;
76727;SDS011;65652;53.132;18.026;2023-02-18T10:59:59;12.60;;;2.90;;
76727;SDS011;65652;53.132;18.026;2023-02-18T11:02:36;10.90;;;2.60;;
76727;SDS011;65652;53.132;18.026;2023-02-18T11:05:11;10.00;;;2.20;;
76727;SDS011;65652;53.132;18.026;2023-02-18T11:07:50;7.90;;;2.10;;
76727;SDS011;65652;53.132;18.026;2023-02-18T11:10:29;9.10;;;2.10;;
76727;SDS011;65652;53.132;18.026;2023-02-18T11:13:00;13.60;;;2.40;;
76727;SDS011;65652;53.132;18.026;2023-02-18T11:15:29;13.20;;;2.60;;
76727;SDS011;65652;53.132;18.026;2023-02-18T11:17:57;10.70;;;2.90;;
76727;SDS011;65652;53.132;18.026;2023-02-18T11:20:38;8.20;;;2.40;;
76727;SDS011;65652;53.132;18.026;2023-02-18T11:25:33;10.70;;;2.60;;
76727;SDS011;65652;53.132;18.026;2023-02-18T11:30:39;10.50;;;2.50;;
76727;SDS011;65652;53.132;18.026;2023-02-18T11:35:56;11.10;;;2.80;;
76727;SDS011;65652;53.132;18.026;2023-02-18T11:38:35;9.40;;;2.80;;
76727;SDS011;65652;53.132;18.026;2023-02-18T11:41:08;12.70;;;3.20;;
76727;SDS011;65652;53.132;18.026;2023-02-18T11:43:41;12.50;;;2.80;;
76727;SDS011;65652;53.132;18.026;2023-02-18T11:46:21;13.70;;;2.60;;
76727;SDS011;65652;53.132;18.026;2023-02-18T11:48:50;10.70;;;3.10;;
76727;SDS011;65652;53.132;18.026;2023-02-18T11:51:32;11.70;;;3.70;;
76727;SDS011;65652;53.132;18.026;2023-02-18T11:54:16;15.80;;;3.70;;
76727;SDS011;65652;53.132;18.026;2023-02-18T11:57:02;14.70;;;3.60;;
76727;SDS011;65652;53.132;18.026;2023-02-18T11:59:32;14.30;;;3.50;;
76727;SDS011;65652;53.132;18.026;2023-02-18T12:10:03;10.20;;;2.10;;
76727;SDS011;65652;53.132;18.026;2023-02-18T12:15:15;13.90;;;3.40;;
76727;SDS011;65652;53.132;18.026;2023-02-18T12:20:48;11.70;;;2.60;;
76727;SDS011;65652;53.132;18.026;2023-02-18T12:23:32;10.00;;;1.90;;
76727;SDS011;65652;53.132;18.026;2023-02-18T12:56:38;9.70;;;1.80;;
76727;SDS011;65652;53.132;18.026;2023-02-18T13:13:09;14.10;;;3.30;;
76727;SDS011;65652;53.132;18.026;2023-02-18T13:15:47;14.70;;;4.00;;
76727;SDS011;65652;53.132;18.026;2023-02-18T13:18:22;8.10;;;2.40;;
76727;SDS011;65652;53.132;18.026;2023-02-18T13:20:59;12.70;;;3.40;;
76727;SDS011;65652;53.132;18.026;2023-02-18T13:23:34;11.70;;;3.40;;
76727;SDS011;65652;53.132;18.026;2023-02-18T13:26:06;15.00;;;3.20;;
76727;SDS011;65652;53.132;18.026;2023-02-18T13:28:39;15.80;;;4.50;;
76727;SDS011;65652;53.132;18.026;2023-02-18T13:33:59;13.70;;;4.00;;
76727;SDS011;65652;53.132;18.026;2023-02-18T13:39:15;13.40;;;3.60;;
76727;SDS011;65652;53.132;18.026;2023-02-18T13:41:47;15.50;;;3.90;;
76727;SDS011;65652;53.132;18.026;2023-02-18T13:46:53;13.30;;;3.30;;
76727;SDS011;65652;53.132;18.026;2023-02-18T13:49:25;13.20;;;3.60;;
76727;SDS011;65652;53.132;18.026;2023-02-18T13:51:58;11.70;;;3.00;;
76727;SDS011;65652;53.132;18.026;2023-02-18T13:54:28;18.80;;;3.60;;
76727;SDS011;65652;53.132;18.026;2023-02-18T13:57:04;11.70;;;3.50;;
76727;SDS011;65652;53.132;18.026;2023-02-18T13:59:40;8.30;;;2.70;;
76727;SDS011;65652;53.132;18.026;2023-02-18T14:10:03;15.30;;;3.80;;
76727;SDS011;65652;53.132;18.026;2023-02-18T14:15:53;6.80;;;1.70;;
76727;SDS011;65652;53.132;18.026;2023-02-18T14:20:48;7.20;;;1.90;;
76727;SDS011;65652;53.132;18.026;2023-02-18T14:25:51;10.30;;;3.50;;
76727;SDS011;65652;53.132;18.026;2023-02-18T14:31:02;12.70;;;3.90;;
76727;SDS011;65652;53.132;18.026;2023-02-18T14:33:33;8.70;;;3.30;;
76727;SDS011;65652;53.132;18.026;2023-02-18T14:36:08;10.90;;;2.50;;
76727;SDS011;65652;53.132;18.026;2023-02-18T14:39:01;7.80;;;2.90;;
76727;SDS011;65652;53.132;18.026;2023-02-18T14:41:44;8.40;;;2.00;;
76727;SDS011;65652;53.132;18.026;2023-02-18T14:44:32;9.20;;;3.20;;
76727;SDS011;65652;53.132;18.026;2023-02-18T14:49:58;6.50;;;2.10;;
76727;SDS011;65652;53.132;18.026;2023-02-18T14:52:33;10.40;;;2.60;;
76727;SDS011;65652;53.132;18.026;2023-02-18T14:55:06;5.10;;;1.30;;
76727;SDS011;65652;53.132;18.026;2023-02-18T14:57:45;6.60;;;1.70;;
76727;SDS011;65652;53.132;18.026;2023-02-18T15:00:18;9.30;;;2.50;;
76727;SDS011;65652;53.132;18.026;2023-02-18T15:02:51;6.30;;;2.40;;
76727;SDS011;65652;53.132;18.026;2023-02-18T15:05:21;9.30;;;2.10;;
76727;SDS011;65652;53.132;18.026;2023-02-18T15:07:57;10.80;;;2.80;;
76727;SDS011;65652;53.132;18.026;2023-02-18T15:15:47;10.70;;;4.10;;
76727;SDS011;65652;53.132;18.026;2023-02-18T15:18:23;7.70;;;2.20;;
76727;SDS011;65652;53.132;18.026;2023-02-18T15:21:01;8.60;;;2.00;;
76727;SDS011;65652;53.132;18.026;2023-02-18T15:23:30;7.90;;;2.40;;
76727;SDS011;65652;53.132;18.026;2023-02-18T15:26:01;8.70;;;2.50;;
76727;SDS011;65652;53.132;18.026;2023-02-18T15:28:31;10.20;;;2.90;;
76727;SDS011;65652;53.132;18.026;2023-02-18T15:31:02;8.70;;;2.80;;
76727;SDS011;65652;53.132;18.026;2023-02-18T15:33:29;9.60;;;2.90;;
76727;SDS011;65652;53.132;18.026;2023-02-18T15:36:05;7.40;;;2.60;;
76727;SDS011;65652;53.132;18.026;2023-02-18T15:38:39;9.70;;;3.20;;
76727;SDS011;65652;53.132;18.026;2023-02-18T15:41:21;12.70;;;4.70;;
76727;SDS011;65652;53.132;18.026;2023-02-18T15:46:26;10.20;;;4.30;;
76727;SDS011;65652;53.132;18.026;2023-02-18T15:48:54;9.00;;;2.90;;
76727;SDS011;65652;53.132;18.026;2023-02-18T15:51:26;7.70;;;2.50;;
76727;SDS011;65652;53.132;18.026;2023-02-18T15:53:57;11.60;;;4.50;;
76727;SDS011;65652;53.132;18.026;2023-02-18T15:56:31;14.90;;;4.40;;
76727;SDS011;65652;53.132;18.026;2023-02-18T16:01:40;13.00;;;4.30;;
76727;SDS011;65652;53.132;18.026;2023-02-18T16:04:10;14.10;;;5.10;;
76727;SDS011;65652;53.132;18.026;2023-02-18T16:06:44;17.30;;;5.70;;
76727;SDS011;65652;53.132;18.026;2023-02-18T16:11:56;13.40;;;5.10;;
76727;SDS011;65652;53.132;18.026;2023-02-18T16:17:13;10.40;;;3.90;;
76727;SDS011;65652;53.132;18.026;2023-02-18T16:22:33;13.00;;;4.40;;
76727;SDS011;65652;53.132;18.026;2023-02-18T16:25:09;15.80;;;5.70;;
76727;SDS011;65652;53.132;18.026;2023-02-18T16:30:25;14.80;;;5.90;;
76727;SDS011;65652;53.132;18.026;2023-02-18T16:32:54;13.20;;;5.60;;
76727;SDS011;65652;53.132;18.026;2023-02-18T16:35:24;17.90;;;5.80;;
76727;SDS011;65652;53.132;18.026;2023-02-18T16:37:53;12.20;;;5.30;;
76727;SDS011;65652;53.132;18.026;2023-02-18T16:40:36;12.90;;;5.00;;
76727;SDS011;65652;53.132;18.026;2023-02-18T16:43:12;16.80;;;7.50;;
76727;SDS011;65652;53.132;18.026;2023-02-18T16:45:45;12.50;;;4.60;;
76727;SDS011;65652;53.132;18.026;2023-02-18T16:48:25;10.60;;;4.70;;
76727;SDS011;65652;53.132;18.026;2023-02-18T16:51:01;13.40;;;5.60;;
76727;SDS011;65652;53.132;18.026;2023-02-18T16:53:31;15.40;;;5.90;;
76727;SDS011;65652;53.132;18.026;2023-02-18T16:55:58;15.60;;;6.20;;
76727;SDS011;65652;53.132;18.026;2023-02-18T16:58:26;15.70;;;5.30;;
76727;SDS011;65652;53.132;18.026;2023-02-18T17:00:53;16.10;;;6.10;;
76727;SDS011;65652;53.132;18.026;2023-02-18T17:03:20;14.20;;;5.30;;
76727;SDS011;65652;53.132;18.026;2023-02-18T17:05:47;12.90;;;5.30;;
76727;SDS011;65652;53.132;18.026;2023-02-18T17:08:16;13.60;;;5.70;;
76727;SDS011;65652;53.132;18.026;2023-02-18T17:10:49;26.20;;;8.20;;
76727;SDS011;65652;53.132;18.026;2023-02-18T17:13:20;37.40;;;16.40;;
76727;SDS011;65652;53.132;18.026;2023-02-18T17:15:49;17.70;;;6.70;;
76727;SDS011;65652;53.132;18.026;2023-02-18T17:18:18;14.90;;;6.60;;
76727;SDS011;65652;53.132;18.026;2023-02-18T17:20:46;17.10;;;7.70;;
76727;SDS011;65652;53.132;18.026;2023-02-18T17:23:14;12.00;;;5.10;;
76727;SDS011;65652;53.132;18.026;2023-02-18T17:28:10;12.30;;;4.90;;
76727;SDS011;65652;53.132;18.026;2023-02-18T17:30:38;10.20;;;4.60;;
76727;SDS011;65652;53.132;18.026;2023-02-18T17:33:06;14.50;;;4.20;;
76727;SDS011;65652;53.132;18.026;2023-02-18T17:35:36;10.90;;;5.20;;
76727;SDS011;65652;53.132;18.026;2023-02-18T17:38:07;11.60;;;4.40;;
76727;SDS011;65652;53.132;18.026;2023-02-18T17:40:36;10.60;;;4.30;;